Time;durP1;ratioP1;P1;durP2;ratioP2;P2;SDS_P1;SDS_P2;PMS_P1;PMS_P2;Temp;Humidity;BMP_temperature;BMP_pressure;BME280_temperature;BME280_humidity;BME280_pressure;Samples;Min_cycle;Max_cycle;Signal;HPM_P1;HPM_P2
2023/10/06 00:01:55;;;;;;;;;;;13.60;99.90;;;;;;5029526;28;20558;-89
2023/10/06 00:04:22;;;;;;;;;;;13.60;99.90;;;;;;5027356;28;19933;-90
2023/10/06 00:06:48;;;;;;;;;;;13.60;99.90;;;;;;5022811;28;19929;-89
2023/10/06 00:09:27;;;;;;;;;;;13.60;99.90;;;;;;5029237;28;19952;-89
2023/10/06 00:11:54;;;;;;;;;;;13.60;99.90;;;;;;5025595;28;20037;-88
2023/10/06 00:14:38;;;;;;;;;;;13.50;99.90;;;;;;5025951;28;20017;-87
2023/10/06 00:17:08;;;;;;;;;;;13.50;99.90;;;;;;5022721;28;19925;-89
2023/10/06 00:19:36;;;;;;;;;;;13.50;99.90;;;;;;5031755;28;19925;-89
2023/10/06 00:22:04;;;;;;;;;;;13.50;99.90;;;;;;5018963;28;19926;-88
2023/10/06 00:24:33;;;;;;;;;;;13.50;99.90;;;;;;5027928;28;19977;-89
2023/10/06 00:26:59;;;;;;;;;;;13.50;99.90;;;;;;5030361;28;19925;-90
2023/10/06 00:29:27;;;;;;;;;;;13.50;99.90;;;;;;5040645;28;19926;-87
2023/10/06 00:31:53;;;;;;;;;;;13.50;99.90;;;;;;5022082;28;19929;-89
2023/10/06 00:34:30;;;;;;;;;;;13.50;99.90;;;;;;5037778;28;19932;-90
2023/10/06 00:36:56;;;;;;;;;;;13.50;99.90;;;;;;5018565;28;20785;-86
2023/10/06 00:39:23;;;;;;;;;;;13.50;99.90;;;;;;5025990;28;19929;-88
2023/10/06 00:42:04;;;;;;;;;;;13.50;99.90;;;;;;5025827;28;19951;-89
2023/10/06 00:44:30;;;;;;;;;;;13.50;99.90;;;;;;5025681;28;19932;-88
2023/10/06 00:46:58;;;;;;;;;;;13.50;99.90;;;;;;5027625;28;20280;-87
2023/10/06 00:49:30;;;;;;;;;;;13.50;99.90;;;;;;5027724;28;19948;-90
2023/10/06 00:51:56;;;;;;;;;;;13.50;99.90;;;;;;5029283;28;20297;-89
2023/10/06 00:54:25;;;;;;;;;;;13.60;99.90;;;;;;5033668;28;20032;-91
2023/10/06 00:56:52;;;;;;;;;;;13.60;99.90;;;;;;5023367;28;19961;-89
2023/10/06 00:59:18;;;;;;;;;;;13.60;99.90;;;;;;5022537;28;19944;-90
2023/10/06 01:01:43;;;;;;;;;;;13.60;99.90;;;;;;5025863;28;19929;-87
2023/10/06 01:04:11;;;;;;;;;;;13.60;99.90;;;;;;5026999;28;20136;-89
2023/10/06 01:06:38;;;;;;;;;;;13.70;99.90;;;;;;5026859;28;19929;-89
2023/10/06 01:11:46;;;;;;;;;;;13.70;99.90;;;;;;5025333;28;19948;-89
2023/10/06 01:14:14;;;;;;;;;;;13.70;99.90;;;;;;5038852;28;19991;-90
2023/10/06 01:16:42;;;;;;;;;;;13.70;99.90;;;;;;5025870;28;19925;-89
2023/10/06 01:19:15;;;;;;;;;;;13.70;99.90;;;;;;5029397;28;19936;-89
2023/10/06 01:21:45;;;;;;;;;;;13.60;99.90;;;;;;5008590;28;19925;-87
2023/10/06 01:24:14;;;;;;;;;;;13.70;99.90;;;;;;5025306;28;19932;-90
2023/10/06 01:26:41;;;;;;;;;;;13.60;99.90;;;;;;5020399;28;19926;-89
2023/10/06 01:29:10;;;;;;;;;;;13.60;99.90;;;;;;5027619;28;19929;-88
2023/10/06 01:31:41;;;;;;;;;;;13.60;99.90;;;;;;5023318;28;19937;-86
2023/10/06 01:34:08;;;;;;;;;;;13.60;99.90;;;;;;5034876;28;19929;-87
2023/10/06 01:36:42;;;;;;;;;;;13.60;99.90;;;;;;5040955;28;19932;-88
2023/10/06 01:39:16;;;;;;;;;;;13.60;99.90;;;;;;5026826;28;19929;-89
2023/10/06 01:41:46;;;;;;;;;;;13.60;99.90;;;;;;5025247;28;20283;-89
2023/10/06 01:44:12;;;;;;;;;;;13.60;99.90;;;;;;5021191;28;20374;-89
2023/10/06 01:46:38;;;;;;;;;;;13.60;99.90;;;;;;5023646;28;19932;-91
2023/10/06 01:49:05;;;;;;;;;;;13.60;99.90;;;;;;5031700;28;19932;-90
2023/10/06 01:51:35;;;;;;;;;;;13.60;99.90;;;;;;5020234;28;19926;-91
2023/10/06 01:54:02;;;;;;;;;;;13.50;99.90;;;;;;5028027;28;19945;-90
2023/10/06 01:56:30;;;;;;;;;;;13.50;99.90;;;;;;5040813;28;20300;-91
2023/10/06 01:58:57;;;;;;;;;;;13.50;99.90;;;;;;5051128;28;19925;-89
2023/10/06 02:01:23;;;;;;;;;;;13.50;99.90;;;;;;5025813;28;19951;-90
2023/10/06 02:03:49;;;;;;;;;;;13.50;99.90;;;;;;5035179;28;19926;-87
2023/10/06 02:06:16;;;;;;;;;;;13.40;99.90;;;;;;5031416;28;19986;-92
2023/10/06 02:08:50;;;;;;;;;;;13.50;99.90;;;;;;5030328;28;19931;-88
2023/10/06 02:11:16;;;;;;;;;;;13.50;99.90;;;;;;5032355;28;19925;-91
2023/10/06 02:13:42;;;;;;;;;;;13.50;99.90;;;;;;5035899;28;19985;-88
2023/10/06 02:16:08;;;;;;;;;;;13.50;99.90;;;;;;5033134;28;19925;-87
2023/10/06 02:18:37;;;;;;;;;;;13.60;99.90;;;;;;5040346;28;19929;-90
2023/10/06 02:21:04;;;;;;;;;;;13.60;99.90;;;;;;5033976;28;19950;-87
2023/10/06 02:23:29;;;;;;;;;;;13.60;99.90;;;;;;5030400;28;19969;-87
2023/10/06 02:25:55;;;;;;;;;;;13.60;99.90;;;;;;5028316;28;19925;-89
2023/10/06 02:28:20;;;;;;;;;;;13.60;99.90;;;;;;5028114;28;19936;-89
2023/10/06 02:30:51;;;;;;;;;;;13.60;99.90;;;;;;5029089;28;19968;-89
2023/10/06 02:33:17;;;;;;;;;;;13.60;99.90;;;;;;5025412;28;19929;-88
2023/10/06 02:35:45;;;;;;;;;;;13.60;99.90;;;;;;5028552;28;19929;-86
2023/10/06 02:38:11;;;;;;;;;;;13.60;99.90;;;;;;5033644;28;19979;-88
2023/10/06 02:40:45;;;;;;;;;;;13.60;99.90;;;;;;5038436;28;19933;-88
2023/10/06 02:43:16;;;;;;;;;;;13.60;99.90;;;;;;5025552;28;20011;-90
2023/10/06 02:45:42;;;;;;;;;;;13.60;99.90;;;;;;5027083;28;20001;-90
2023/10/06 02:48:22;;;;;;;;;;;13.50;99.90;;;;;;5015960;28;20003;-86
2023/10/06 02:50:50;;;;;;;;;;;13.60;99.90;;;;;;5043853;28;19933;-88
2023/10/06 02:53:20;;;;;;;;;;;13.50;99.90;;;;;;5025696;28;19930;-87
2023/10/06 02:55:48;;;;;;;;;;;13.50;99.90;;;;;;5025195;28;19926;-89
2023/10/06 02:58:24;;;;;;;;;;;13.60;99.90;;;;;;5029034;28;19925;-88
2023/10/06 03:00:50;;;;;;;;;;;13.60;99.90;;;;;;5025035;28;19957;-87
2023/10/06 03:03:18;;;;;;;;;;;13.60;99.90;;;;;;5028565;28;19936;-87
2023/10/06 03:05:49;;;;;;;;;;;13.50;99.90;;;;;;5022353;28;19947;-87
2023/10/06 03:08:18;;;;;;;;;;;13.60;99.90;;;;;;5041354;28;19960;-87
2023/10/06 03:10:44;;;;;;;;;;;13.50;99.90;;;;;;5018393;28;19925;-87
2023/10/06 03:13:13;;;;;;;;;;;13.50;99.90;;;;;;5033112;28;20455;-88
2023/10/06 03:15:45;;;;;;;;;;;13.50;99.90;;;;;;5025182;28;19936;-91
2023/10/06 03:18:12;;;;;;;;;;;13.50;99.90;;;;;;5007426;28;19925;-89
2023/10/06 03:20:46;;;;;;;;;;;13.50;99.90;;;;;;5024547;28;19936;-89
2023/10/06 03:23:26;;;;;;;;;;;13.50;99.90;;;;;;5025638;28;19926;-90
2023/10/06 03:25:53;;;;;;;;;;;13.40;99.90;;;;;;5030289;28;20456;-88
2023/10/06 03:28:20;;;;;;;;;;;13.40;99.90;;;;;;5028754;28;19929;-86
2023/10/06 03:30:49;;;;;;;;;;;13.30;99.90;;;;;;5032654;28;19936;-89
2023/10/06 03:33:17;;;;;;;;;;;13.30;99.90;;;;;;5028270;28;19936;-90
2023/10/06 03:35:47;;;;;;;;;;;13.20;99.90;;;;;;5031973;28;19972;-86
2023/10/06 03:46:03;;;;;;;;;;;13.10;99.90;;;;;;5030464;28;19965;-89
2023/10/06 03:48:29;;;;;;;;;;;13.10;99.90;;;;;;5028171;28;19970;-88
2023/10/06 03:50:55;;;;;;;;;;;13.00;99.90;;;;;;5029775;28;19936;-91
2023/10/06 03:53:22;;;;;;;;;;;13.00;99.90;;;;;;5030502;28;19932;-89
2023/10/06 03:55:48;;;;;;;;;;;13.00;99.90;;;;;;5028103;28;19925;-88
2023/10/06 03:58:15;;;;;;;;;;;13.00;99.90;;;;;;5031076;28;19948;-88
2023/10/06 04:00:47;;;;;;;;;;;13.00;99.90;;;;;;5031382;28;20338;-87
2023/10/06 04:03:13;;;;;;;;;;;12.90;99.90;;;;;;5026038;28;20019;-89
2023/10/06 04:05:44;;;;;;;;;;;12.90;99.90;;;;;;5022790;28;21772;-90
2023/10/06 04:08:16;;;;;;;;;;;12.90;99.90;;;;;;5027505;28;19932;-87
2023/10/06 04:10:42;;;;;;;;;;;13.00;99.90;;;;;;5030668;28;21373;-86
2023/10/06 04:13:09;;;;;;;;;;;12.90;99.90;;;;;;5031628;28;19933;-87
2023/10/06 04:15:39;;;;;;;;;;;13.00;99.90;;;;;;5042395;28;19926;-89
2023/10/06 04:18:10;;;;;;;;;;;12.90;99.90;;;;;;5025115;28;19975;-91
2023/10/06 04:20:41;;;;;;;;;;;12.90;99.90;;;;;;5029358;28;19929;-88
2023/10/06 04:23:07;;;;;;;;;;;12.90;99.90;;;;;;5029185;28;19926;-90
2023/10/06 04:25:37;;;;;;;;;;;12.90;99.90;;;;;;5028745;28;19929;-89
2023/10/06 04:28:11;;;;;;;;;;;12.90;99.90;;;;;;5026135;28;19991;-89
2023/10/06 04:30:37;;;;;;;;;;;12.90;99.90;;;;;;5025532;28;19943;-87
2023/10/06 04:33:04;;;;;;;;;;;12.80;99.90;;;;;;5026636;28;20446;-89
2023/10/06 04:35:32;;;;;;;;;;;12.80;99.90;;;;;;5032419;28;19925;-89
2023/10/06 04:37:59;;;;;;;;;;;12.80;99.90;;;;;;5022139;28;19929;-90
2023/10/06 04:40:24;;;;;;;;;;;12.80;99.90;;;;;;5037279;28;19926;-91
2023/10/06 04:42:50;;;;;;;;;;;12.80;99.90;;;;;;5034322;28;19926;-90
2023/10/06 04:45:15;;;;;;;;;;;12.80;99.90;;;;;;5036358;28;19925;-89
2023/10/06 04:47:41;;;;;;;;;;;12.80;99.90;;;;;;5029065;28;19930;-90
2023/10/06 04:50:11;;;;;;;;;;;12.80;99.90;;;;;;5036252;28;19951;-88
2023/10/06 04:52:38;;;;;;;;;;;12.80;99.90;;;;;;5026618;28;19963;-85
2023/10/06 04:55:04;;;;;;;;;;;12.80;99.90;;;;;;5036489;28;19949;-90
2023/10/06 04:57:30;;;;;;;;;;;12.70;99.90;;;;;;5036621;28;20306;-88
2023/10/06 04:59:55;;;;;;;;;;;12.80;99.90;;;;;;5030121;28;19931;-88
2023/10/06 05:02:23;;;;;;;;;;;12.80;99.90;;;;;;5024935;28;19930;-89
2023/10/06 05:04:51;;;;;;;;;;;12.80;99.90;;;;;;5048751;28;19925;-89
2023/10/06 05:07:16;;;;;;;;;;;12.80;99.90;;;;;;5026450;28;20343;-89
2023/10/06 05:09:42;;;;;;;;;;;12.80;99.90;;;;;;5026172;28;19975;-87
2023/10/06 05:12:09;;;;;;;;;;;12.80;99.90;;;;;;5033973;28;19925;-89
2023/10/06 05:14:35;;;;;;;;;;;12.80;99.90;;;;;;5024655;28;20391;-89
2023/10/06 05:17:01;;;;;;;;;;;12.80;99.90;;;;;;5023085;28;19929;-90
2023/10/06 05:19:27;;;;;;;;;;;12.80;99.90;;;;;;5027113;28;20289;-88
2023/10/06 05:21:53;;;;;;;;;;;12.80;99.90;;;;;;5051219;28;19960;-88
2023/10/06 05:24:19;;;;;;;;;;;12.90;99.90;;;;;;5039148;28;19925;-88
2023/10/06 05:26:44;;;;;;;;;;;12.90;99.90;;;;;;5024711;28;19968;-88
2023/10/06 05:29:14;;;;;;;;;;;12.90;99.90;;;;;;5021840;28;19964;-90
2023/10/06 05:31:40;;;;;;;;;;;12.90;99.90;;;;;;5027472;28;19929;-88
2023/10/06 05:34:07;;;;;;;;;;;12.90;99.90;;;;;;5030876;28;19933;-88
2023/10/06 05:36:33;;;;;;;;;;;13.00;99.90;;;;;;5033493;28;19948;-89
2023/10/06 05:38:59;;;;;;;;;;;13.00;99.90;;;;;;5023189;28;19955;-91
2023/10/06 05:41:32;;;;;;;;;;;13.00;99.90;;;;;;5030667;28;19928;-89
2023/10/06 05:43:58;;;;;;;;;;;13.00;99.90;;;;;;5024835;28;19940;-92
2023/10/06 05:46:24;;;;;;;;;;;13.10;99.90;;;;;;5027777;28;19926;-89
2023/10/06 05:48:51;;;;;;;;;;;13.10;99.90;;;;;;5015837;28;20302;-88
2023/10/06 05:51:21;;;;;;;;;;;13.20;99.90;;;;;;5025658;28;20481;-88
2023/10/06 05:53:48;;;;;;;;;;;13.20;99.90;;;;;;5029461;28;19960;-88
2023/10/06 05:56:15;;;;;;;;;;;13.30;99.90;;;;;;5039376;28;19925;-90
2023/10/06 05:58:43;;;;;;;;;;;13.30;99.90;;;;;;5021826;28;20627;-88
2023/10/06 06:01:18;;;;;;;;;;;13.30;99.90;;;;;;5030028;28;19925;-88
2023/10/06 06:03:49;;;;;;;;;;;13.40;99.90;;;;;;5030556;28;19931;-88
2023/10/06 06:06:15;;;;;;;;;;;13.50;99.90;;;;;;5026117;28;20311;-88
2023/10/06 06:08:47;;;;;;;;;;;13.50;99.90;;;;;;5030746;28;19929;-88
2023/10/06 06:11:12;;;;;;;;;;;13.50;99.90;;;;;;5028358;28;19949;-86
2023/10/06 06:13:38;;;;;;;;;;;13.60;99.90;;;;;;5022845;28;20408;-86
2023/10/06 06:16:05;;;;;;;;;;;13.70;99.90;;;;;;5032208;28;20274;-87
2023/10/06 06:18:31;;;;;;;;;;;13.70;99.90;;;;;;5025800;28;20013;-88
2023/10/06 06:21:00;;;;;;;;;;;13.80;99.90;;;;;;5022070;28;19936;-88
2023/10/06 06:23:25;;;;;;;;;;;13.80;99.90;;;;;;5007264;28;19926;-87
2023/10/06 06:25:51;;;;;;;;;;;13.90;99.90;;;;;;5026901;28;19925;-86
2023/10/06 06:28:16;;;;;;;;;;;13.90;99.90;;;;;;5004530;28;20024;-87
2023/10/06 06:30:42;;;;;;;;;;;14.00;99.90;;;;;;5027639;28;19925;-85
2023/10/06 06:33:08;;;;;;;;;;;14.00;99.90;;;;;;5028033;28;19925;-86
2023/10/06 06:35:35;;;;;;;;;;;14.10;99.90;;;;;;5023163;28;20464;-87
2023/10/06 06:38:01;;;;;;;;;;;14.20;99.90;;;;;;5035820;28;19927;-87
2023/10/06 06:40:31;;;;;;;;;;;14.20;99.90;;;;;;5031552;28;19960;-85
2023/10/06 06:42:57;;;;;;;;;;;14.20;99.90;;;;;;5036994;28;19925;-86
2023/10/06 06:45:25;;;;;;;;;;;14.20;99.90;;;;;;5021701;28;19932;-86
2023/10/06 06:47:51;;;;;;;;;;;14.30;99.90;;;;;;5038619;28;19988;-85
2023/10/06 06:50:17;;;;;;;;;;;14.30;99.90;;;;;;5036949;28;19940;-87
2023/10/06 06:52:43;;;;;;;;;;;14.30;99.90;;;;;;5035658;28;19933;-87
2023/10/06 06:55:15;;;;;;;;;;;14.30;99.90;;;;;;5040889;28;19952;-87
2023/10/06 06:57:49;;;;;;;;;;;14.30;99.90;;;;;;5029925;28;19932;-88
2023/10/06 07:00:15;;;;;;;;;;;14.30;99.90;;;;;;5028061;28;19962;-88
2023/10/06 07:02:45;;;;;;;;;;;14.30;99.90;;;;;;5031056;28;19932;-89
2023/10/06 07:05:15;;;;;;;;;;;14.40;99.90;;;;;;5041506;28;19944;-86
2023/10/06 07:07:42;;;;;;;;;;;14.40;99.90;;;;;;5023055;28;19952;-87
2023/10/06 07:10:11;;;;;;;;;;;14.40;99.90;;;;;;5025983;28;19968;-90
2023/10/06 07:12:37;;;;;;;;;;;14.40;99.90;;;;;;5023211;28;19952;-89
2023/10/06 07:15:03;;;;;;;;;;;14.50;99.90;;;;;;5025968;28;19929;-91
2023/10/06 07:17:30;;;;;;;;;;;14.50;99.90;;;;;;5027182;28;19961;-87
2023/10/06 07:20:00;;;;;;;;;;;14.50;99.90;;;;;;5029286;28;19932;-86
2023/10/06 07:22:29;;;;;;;;;;;14.50;99.90;;;;;;5024838;28;19936;-88
2023/10/06 07:24:56;;;;;;;;;;;14.50;99.90;;;;;;5020816;28;19944;-86
2023/10/06 07:27:22;;;;;;;;;;;14.50;99.90;;;;;;5026475;28;20408;-87
2023/10/06 07:29:51;;;;;;;;;;;14.40;99.90;;;;;;5028300;28;19930;-84
2023/10/06 07:32:16;;;;;;;;;;;14.40;99.90;;;;;;5020926;28;19960;-87
2023/10/06 07:34:42;;;;;;;;;;;14.40;99.90;;;;;;5040034;28;19934;-86
2023/10/06 07:37:07;;;;;;;;;;;14.50;99.90;;;;;;5021890;28;19925;-86
2023/10/06 07:39:33;;;;;;;;;;;14.50;99.90;;;;;;5029584;28;20383;-87
2023/10/06 07:41:59;;;;;;;;;;;14.50;99.90;;;;;;5030063;28;19957;-85
2023/10/06 07:44:25;;;;;;;;;;;14.60;99.90;;;;;;5027587;28;19936;-86
2023/10/06 07:46:52;;;;;;;;;;;14.60;99.90;;;;;;5023087;28;19984;-86
2023/10/06 07:49:18;;;;;;;;;;;14.70;99.90;;;;;;5025246;28;19984;-85
2023/10/06 07:51:45;;;;;;;;;;;14.70;99.90;;;;;;5010934;28;20268;-86
2023/10/06 07:54:10;;;;;;;;;;;14.80;99.90;;;;;;5028555;28;19929;-85
2023/10/06 07:56:36;;;;;;;;;;;15.00;99.90;;;;;;5025860;28;19944;-85
2023/10/06 07:59:01;;;;;;;;;;;15.10;99.90;;;;;;5024274;28;20408;-83
2023/10/06 08:01:27;;;;;;;;;;;15.10;99.90;;;;;;5029193;28;19929;-86
2023/10/06 08:03:53;;;;;;;;;;;15.10;99.90;;;;;;5024529;28;19929;-85
2023/10/06 08:06:20;;;;;;;;;;;15.10;99.90;;;;;;5023288;28;19976;-85
2023/10/06 08:08:48;;;;;;;;;;;15.10;99.90;;;;;;5022793;28;19929;-86
2023/10/06 08:11:13;;;;;;;;;;;15.00;99.90;;;;;;5028229;28;19933;-86
2023/10/06 08:13:40;;;;;;;;;;;15.00;99.90;;;;;;5024115;28;19960;-85
2023/10/06 08:16:06;;;;;;;;;;;15.00;99.90;;;;;;5022155;28;19963;-85
2023/10/06 08:18:32;;;;;;;;;;;15.00;99.90;;;;;;5023375;28;19999;-84
2023/10/06 08:21:00;;;;;;;;;;;15.00;99.90;;;;;;5027823;28;19944;-85
2023/10/06 08:23:27;;;;;;;;;;;15.10;99.90;;;;;;5024065;28;19933;-84
2023/10/06 08:25:56;;;;;;;;;;;15.10;99.90;;;;;;5020436;28;19952;-85
2023/10/06 08:28:26;;;;;;;;;;;15.10;99.90;;;;;;5035284;28;20037;-84
2023/10/06 08:30:54;;;;;;;;;;;15.10;99.90;;;;;;5029940;28;19979;-87
2023/10/06 08:33:20;;;;;;;;;;;15.10;99.90;;;;;;5027770;28;19925;-88
2023/10/06 08:35:45;;;;;;;;;;;15.10;99.90;;;;;;5012001;28;20428;-85
2023/10/06 08:38:11;;;;;;;;;;;15.10;99.90;;;;;;5009078;28;19926;-85
2023/10/06 08:40:41;;;;;;;;;;;15.10;99.90;;;;;;5021822;28;19929;-87
2023/10/06 08:43:07;;;;;;;;;;;15.00;99.90;;;;;;5044327;28;19968;-88
2023/10/06 08:45:42;;;;;;;;;;;15.00;99.90;;;;;;5029666;28;19930;-85
2023/10/06 08:48:12;;;;;;;;;;;15.00;99.90;;;;;;5020962;28;19937;-87
2023/10/06 08:50:37;;;;;;;;;;;15.00;99.90;;;;;;5021156;28;19929;-90
2023/10/06 08:53:09;;;;;;;;;;;15.00;99.90;;;;;;5020298;28;20074;-87
2023/10/06 08:55:36;;;;;;;;;;;15.00;99.90;;;;;;5028302;28;19926;-90
2023/10/06 08:58:02;;;;;;;;;;;15.00;99.90;;;;;;5027184;28;19936;-89
2023/10/06 09:00:34;;;;;;;;;;;15.10;99.90;;;;;;5011400;28;19925;-89
2023/10/06 09:03:07;;;;;;;;;;;15.10;99.90;;;;;;5019435;28;20192;-87
2023/10/06 09:05:34;;;;;;;;;;;15.10;99.90;;;;;;5039169;28;19926;-89
2023/10/06 09:08:00;;;;;;;;;;;15.10;99.90;;;;;;5025978;28;20034;-89
2023/10/06 09:10:27;;;;;;;;;;;15.20;99.90;;;;;;5024808;28;19925;-88
2023/10/06 09:13:00;;;;;;;;;;;15.20;99.90;;;;;;5035532;28;19925;-89
2023/10/06 09:15:26;;;;;;;;;;;15.30;99.90;;;;;;5032162;28;19929;-88
2023/10/06 09:17:53;;;;;;;;;;;15.40;99.90;;;;;;5039862;28;19967;-85
2023/10/06 09:20:36;;;;;;;;;;;15.50;99.90;;;;;;5001705;28;19926;-86
2023/10/06 09:23:03;;;;;;;;;;;15.60;99.90;;;;;;5024010;28;19925;-89
2023/10/06 09:25:40;;;;;;;;;;;15.60;99.90;;;;;;5019799;28;19932;-88
2023/10/06 09:28:08;;;;;;;;;;;15.60;99.90;;;;;;5024205;28;19933;-86
2023/10/06 09:30:49;;;;;;;;;;;15.70;99.90;;;;;;5025543;28;20413;-86
2023/10/06 09:33:15;;;;;;;;;;;15.70;99.90;;;;;;5030266;28;19925;-86
2023/10/06 09:35:43;;;;;;;;;;;15.80;99.90;;;;;;5030564;28;19925;-85
2023/10/06 09:38:10;;;;;;;;;;;15.90;99.90;;;;;;5041094;28;20290;-86
2023/10/06 09:40:43;;;;;;;;;;;16.10;99.90;;;;;;5027502;28;19967;-85
2023/10/06 09:43:12;;;;;;;;;;;16.40;99.90;;;;;;5024956;28;19997;-87
2023/10/06 09:45:40;;;;;;;;;;;16.40;99.90;;;;;;5013848;28;20001;-87
2023/10/06 09:48:08;;;;;;;;;;;16.60;99.90;;;;;;5024865;28;19932;-86
2023/10/06 09:50:37;;;;;;;;;;;16.70;99.90;;;;;;5040119;28;20466;-85
2023/10/06 09:53:08;;;;;;;;;;;16.90;99.90;;;;;;5024629;28;20297;-86
2023/10/06 09:55:35;;;;;;;;;;;17.00;99.90;;;;;;5018338;28;20280;-86
2023/10/06 09:58:03;;;;;;;;;;;17.10;99.90;;;;;;5022144;28;19929;-85
2023/10/06 10:00:30;;;;;;;;;;;17.20;99.90;;;;;;5021905;28;19929;-86
2023/10/06 10:02:57;;;;;;;;;;;17.30;99.90;;;;;;5025454;28;20412;-87
2023/10/06 10:05:23;;;;;;;;;;;17.60;99.90;;;;;;5025074;28;20293;-86
2023/10/06 10:07:49;;;;;;;;;;;17.90;99.90;;;;;;5030470;28;19925;-86
2023/10/06 10:10:16;;;;;;;;;;;18.00;99.90;;;;;;5021177;28;19925;-85
2023/10/06 10:12:48;;;;;;;;;;;18.10;99.90;;;;;;5023225;28;19933;-85
2023/10/06 10:15:16;;;;;;;;;;;18.10;99.90;;;;;;5027537;28;19929;-89
2023/10/06 10:18:00;;;;;;;;;;;18.10;99.90;;;;;;5027817;28;20399;-85
2023/10/06 10:20:26;;;;;;;;;;;18.10;99.90;;;;;;5044484;28;19934;-86
2023/10/06 10:22:55;;;;;;;;;;;18.20;99.90;;;;;;5026595;28;19925;-87
2023/10/06 10:25:23;;;;;;;;;;;18.10;99.90;;;;;;5032904;28;19960;-91
2023/10/06 10:28:07;;;;;;;;;;;18.10;99.90;;;;;;5032187;28;19929;-88
2023/10/06 10:30:56;;;;;;;;;;;18.00;99.90;;;;;;5029464;28;19968;-90
2023/10/06 10:33:29;;;;;;;;;;;18.10;99.90;;;;;;5023702;28;19925;-88
2023/10/06 10:36:17;;;;;;;;;;;18.20;99.90;;;;;;5032203;28;19925;-92
2023/10/06 10:39:04;;;;;;;;;;;18.30;99.90;;;;;;5035964;28;19933;-94
2023/10/06 10:41:35;;;;;;;;;;;18.50;99.90;;;;;;5040064;28;19960;-90
2023/10/06 10:44:01;;;;;;;;;;;18.60;99.90;;;;;;5040853;28;19989;-93
2023/10/06 10:46:40;;;;;;;;;;;18.80;99.90;;;;;;5043257;28;20391;-93
2023/10/06 10:49:08;;;;;;;;;;;19.10;99.90;;;;;;5032524;28;20000;-94
2023/10/06 10:51:48;;;;;;;;;;;19.30;99.90;;;;;;5037188;28;19929;-90
2023/10/06 10:54:14;;;;;;;;;;;19.40;99.90;;;;;;5033266;28;19929;-89
2023/10/06 10:56:43;;;;;;;;;;;19.20;99.90;;;;;;5025496;28;19992;-88
2023/10/06 10:59:09;;;;;;;;;;;19.00;99.90;;;;;;5030676;28;19925;-92
2023/10/06 11:01:38;;;;;;;;;;;18.70;99.90;;;;;;5025870;28;19932;-90
2023/10/06 11:04:13;;;;;;;;;;;18.50;99.90;;;;;;5036945;28;19949;-93
2023/10/06 11:06:39;;;;;;;;;;;18.40;99.90;;;;;;5029640;28;20436;-90
2023/10/06 11:09:12;;;;;;;;;;;18.20;99.90;;;;;;5026473;28;19933;-88
2023/10/06 11:11:41;;;;;;;;;;;18.00;99.90;;;;;;5030745;28;19933;-90
2023/10/06 11:14:06;;;;;;;;;;;18.00;99.90;;;;;;5027045;28;19933;-90
2023/10/06 11:16:32;;;;;;;;;;;17.90;99.90;;;;;;5024979;28;19976;-92
2023/10/06 11:18:58;;;;;;;;;;;17.80;99.90;;;;;;5025909;28;19951;-92
2023/10/06 11:21:24;;;;;;;;;;;17.80;99.90;;;;;;5027145;28;19929;-91
2023/10/06 11:23:50;;;;;;;;;;;17.80;99.90;;;;;;5040718;28;19932;-88
2023/10/06 11:26:28;;;;;;;;;;;17.80;99.90;;;;;;5032562;28;19961;-91
2023/10/06 11:28:55;;;;;;;;;;;17.90;99.90;;;;;;5053411;28;20020;-90
2023/10/06 11:31:23;;;;;;;;;;;17.90;99.90;;;;;;5047272;28;20344;-93
2023/10/06 11:33:49;;;;;;;;;;;18.00;99.90;;;;;;5036491;28;19925;-90
2023/10/06 11:36:16;;;;;;;;;;;18.00;99.90;;;;;;5034804;28;19971;-87
2023/10/06 11:38:42;;;;;;;;;;;18.00;99.90;;;;;;5028111;28;19929;-93
2023/10/06 11:41:08;;;;;;;;;;;18.10;99.90;;;;;;5059323;28;19925;-92
2023/10/06 11:43:33;;;;;;;;;;;18.10;99.90;;;;;;5058404;28;19924;-88
2023/10/06 11:46:03;;;;;;;;;;;18.20;99.90;;;;;;5024743;28;19952;-88
2023/10/06 11:48:31;;;;;;;;;;;18.20;99.90;;;;;;5022081;28;19985;-95
2023/10/06 11:51:00;;;;;;;;;;;18.30;99.90;;;;;;5039896;28;19926;-93
2023/10/06 11:53:26;;;;;;;;;;;18.30;99.90;;;;;;5021029;28;20039;-89
2023/10/06 11:55:53;;;;;;;;;;;18.30;99.90;;;;;;5039681;28;20381;-85
2023/10/06 11:58:35;;;;;;;;;;;18.30;99.90;;;;;;5024549;28;19926;-85
2023/10/06 12:01:02;;;;;;;;;;;18.30;99.90;;;;;;5025395;28;20641;-86
2023/10/06 12:03:39;;;;;;;;;;;18.40;99.90;;;;;;5020109;28;19936;-86
2023/10/06 12:06:07;;;;;;;;;;;18.50;99.90;;;;;;5018981;28;19948;-85
2023/10/06 12:08:40;;;;;;;;;;;18.60;99.90;;;;;;5008211;28;19936;-88
2023/10/06 12:11:05;;;;;;;;;;;18.70;99.90;;;;;;5032776;28;19948;-85
2023/10/06 12:13:32;;;;;;;;;;;18.80;99.90;;;;;;5040759;28;20449;-87
2023/10/06 12:15:57;;;;;;;;;;;18.90;99.90;;;;;;5040715;28;19933;-87
2023/10/06 12:18:23;;;;;;;;;;;18.80;99.90;;;;;;5030760;28;19980;-92
2023/10/06 12:20:48;;;;;;;;;;;18.90;99.90;;;;;;5041068;28;20376;-87
2023/10/06 12:23:14;;;;;;;;;;;18.90;99.90;;;;;;5039976;28;19940;-86
2023/10/06 12:25:40;;;;;;;;;;;19.00;99.90;;;;;;5040229;28;19929;-87
2023/10/06 12:28:05;;;;;;;;;;;19.00;99.90;;;;;;5041218;28;20008;-86
2023/10/06 12:30:31;;;;;;;;;;;19.10;99.90;;;;;;5040929;28;19935;-84
2023/10/06 12:32:58;;;;;;;;;;;19.10;99.90;;;;;;5040054;28;19931;-87
2023/10/06 12:35:28;;;;;;;;;;;19.20;99.90;;;;;;5040043;28;19935;-86
2023/10/06 12:37:54;;;;;;;;;;;19.30;99.90;;;;;;5039322;28;19974;-86
2023/10/06 12:40:19;;;;;;;;;;;19.40;99.90;;;;;;5031459;28;19980;-88
2023/10/06 12:42:46;;;;;;;;;;;19.50;99.90;;;;;;5030243;28;19932;-87
2023/10/06 12:45:13;;;;;;;;;;;19.60;99.90;;;;;;5021589;28;19925;-88
2023/10/06 12:47:39;;;;;;;;;;;19.60;99.90;;;;;;5041008;28;20019;-84
2023/10/06 12:50:06;;;;;;;;;;;19.60;99.90;;;;;;5035647;28;19933;-86
2023/10/06 12:52:36;;;;;;;;;;;19.70;99.90;;;;;;5039050;28;19990;-86
2023/10/06 12:55:05;;;;;;;;;;;19.70;99.90;;;;;;5039245;28;19925;-86
2023/10/06 12:57:34;;;;;;;;;;;19.60;99.90;;;;;;5039621;28;19925;-86
2023/10/06 13:00:00;;;;;;;;;;;19.60;99.90;;;;;;5034687;28;19925;-86
2023/10/06 13:02:26;;;;;;;;;;;19.60;99.90;;;;;;5012600;28;19997;-86
2023/10/06 13:04:53;;;;;;;;;;;19.50;99.90;;;;;;5038422;28;20384;-88
2023/10/06 13:07:18;;;;;;;;;;;19.50;99.90;;;;;;5038611;28;19929;-88
2023/10/06 13:09:49;;;;;;;;;;;19.50;99.90;;;;;;5038952;28;19987;-87
2023/10/06 13:12:15;;;;;;;;;;;19.40;99.90;;;;;;5038761;28;19929;-86
2023/10/06 13:14:42;;;;;;;;;;;19.40;99.90;;;;;;5039156;28;19929;-85
2023/10/06 13:17:08;;;;;;;;;;;19.40;99.90;;;;;;5038935;28;19963;-88
2023/10/06 13:19:34;;;;;;;;;;;19.40;99.90;;;;;;5038979;28;20016;-85
2023/10/06 13:21:59;;;;;;;;;;;19.30;99.90;;;;;;5007658;28;19999;-83
2023/10/06 13:24:25;;;;;;;;;;;19.40;99.90;;;;;;5030216;28;19925;-83
2023/10/06 13:26:51;;;;;;;;;;;19.30;99.90;;;;;;5038704;28;19929;-83
2023/10/06 13:29:19;;;;;;;;;;;19.30;99.90;;;;;;5030276;28;19935;-84
2023/10/06 13:31:47;;;;;;;;;;;19.40;99.90;;;;;;5020686;28;19988;-82
2023/10/06 13:34:13;;;;;;;;;;;19.50;99.90;;;;;;5021461;28;20024;-83
2023/10/06 13:36:41;;;;;;;;;;;19.60;99.90;;;;;;5031455;28;19972;-83
2023/10/06 13:39:15;;;;;;;;;;;19.70;99.90;;;;;;5045440;28;19925;-84
2023/10/06 13:41:43;;;;;;;;;;;19.90;99.90;;;;;;5041830;28;19956;-83
2023/10/06 13:44:10;;;;;;;;;;;19.90;99.90;;;;;;5034744;28;19929;-86
2023/10/06 13:46:35;;;;;;;;;;;20.00;99.90;;;;;;5029374;28;19925;-83
2023/10/06 13:49:01;;;;;;;;;;;20.10;99.90;;;;;;5035876;28;19976;-84
2023/10/06 13:51:26;;;;;;;;;;;20.10;99.90;;;;;;5036193;28;19929;-84
2023/10/06 13:53:52;;;;;;;;;;;20.00;99.90;;;;;;5034660;28;19944;-85
2023/10/06 13:56:18;;;;;;;;;;;19.90;99.90;;;;;;5031130;28;20376;-84
2023/10/06 13:58:44;;;;;;;;;;;19.90;99.90;;;;;;5024973;28;19926;-84
2023/10/06 14:01:11;;;;;;;;;;;19.90;99.90;;;;;;5032866;28;19965;-84
2023/10/06 14:03:37;;;;;;;;;;;20.00;99.90;;;;;;5036995;28;19960;-86
2023/10/06 14:06:03;;;;;;;;;;;20.00;99.90;;;;;;5024729;28;19925;-85
2023/10/06 14:08:28;;;;;;;;;;;20.10;99.90;;;;;;5042533;28;19936;-86
2023/10/06 14:10:55;;;;;;;;;;;20.10;99.90;;;;;;5029253;28;20376;-87
2023/10/06 14:13:24;;;;;;;;;;;20.20;99.90;;;;;;5040783;28;19948;-86
2023/10/06 14:16:09;;;;;;;;;;;20.20;99.90;;;;;;5034479;28;19935;-87
2023/10/06 14:18:34;;;;;;;;;;;20.10;99.90;;;;;;5042861;28;19929;-83
2023/10/06 14:21:05;;;;;;;;;;;20.00;99.90;;;;;;5043475;28;19935;-85
2023/10/06 14:23:32;;;;;;;;;;;19.90;99.90;;;;;;5046662;28;19928;-84
2023/10/06 14:26:00;;;;;;;;;;;19.80;99.90;;;;;;5041563;28;19987;-86
2023/10/06 14:28:27;;;;;;;;;;;19.70;99.90;;;;;;5040666;28;19995;-87
2023/10/06 14:30:56;;;;;;;;;;;19.70;99.90;;;;;;5043189;28;19925;-86
2023/10/06 14:33:28;;;;;;;;;;;19.60;99.90;;;;;;5042596;28;19925;-85